sensor_id;sensor_type;location;lat;lon;timestamp;P1;durP1;ratioP1;P2;durP2;ratioP2
18576;SDS011;9418;52.694;13.294;2023-04-24T00:01:19;3.57;;;3.27;;
18576;SDS011;9418;52.694;13.294;2023-04-24T00:03:46;3.00;;;2.90;;
18576;SDS011;9418;52.694;13.294;2023-04-24T00:06:12;3.37;;;3.17;;
18576;SDS011;9418;52.694;13.294;2023-04-24T00:08:41;3.10;;;2.90;;
18576;SDS011;9418;52.694;13.294;2023-04-24T00:11:09;3.80;;;3.37;;
18576;SDS011;9418;52.694;13.294;2023-04-24T00:13:37;4.03;;;3.47;;
18576;SDS011;9418;52.694;13.294;2023-04-24T00:16:03;3.20;;;2.97;;
18576;SDS011;9418;52.694;13.294;2023-04-24T00:18:30;4.10;;;3.80;;
18576;SDS011;9418;52.694;13.294;2023-04-24T00:20:57;3.57;;;3.37;;
18576;SDS011;9418;52.694;13.294;2023-04-24T00:23:23;8.40;;;3.13;;
18576;SDS011;9418;52.694;13.294;2023-04-24T00:25:50;3.50;;;3.30;;
18576;SDS011;9418;52.694;13.294;2023-04-24T00:28:18;5.40;;;4.50;;
18576;SDS011;9418;52.694;13.294;2023-04-24T00:30:44;3.63;;;3.43;;
18576;SDS011;9418;52.694;13.294;2023-04-24T00:33:11;3.63;;;3.43;;
18576;SDS011;9418;52.694;13.294;2023-04-24T00:35:37;3.83;;;3.47;;
18576;SDS011;9418;52.694;13.294;2023-04-24T00:38:04;3.67;;;3.47;;
18576;SDS011;9418;52.694;13.294;2023-04-24T00:40:31;4.40;;;4.03;;
18576;SDS011;9418;52.694;13.294;2023-04-24T00:42:58;4.70;;;4.27;;
18576;SDS011;9418;52.694;13.294;2023-04-24T00:45:26;5.03;;;4.20;;
18576;SDS011;9418;52.694;13.294;2023-04-24T00:47:53;4.47;;;4.10;;
18576;SDS011;9418;52.694;13.294;2023-04-24T00:50:20;4.07;;;3.77;;
18576;SDS011;9418;52.694;13.294;2023-04-24T00:52:47;4.07;;;3.77;;
18576;SDS011;9418;52.694;13.294;2023-04-24T00:55:13;4.63;;;4.00;;
18576;SDS011;9418;52.694;13.294;2023-04-24T00:57:40;4.10;;;3.70;;
18576;SDS011;9418;52.694;13.294;2023-04-24T01:00:07;4.20;;;3.87;;
18576;SDS011;9418;52.694;13.294;2023-04-24T01:02:38;4.70;;;3.87;;
18576;SDS011;9418;52.694;13.294;2023-04-24T01:05:08;4.07;;;3.87;;
18576;SDS011;9418;52.694;13.294;2023-04-24T01:07:36;6.43;;;4.13;;
18576;SDS011;9418;52.694;13.294;2023-04-24T01:10:04;3.73;;;3.47;;
18576;SDS011;9418;52.694;13.294;2023-04-24T01:12:32;13.33;;;4.17;;
18576;SDS011;9418;52.694;13.294;2023-04-24T01:14:59;5.80;;;4.37;;
18576;SDS011;9418;52.694;13.294;2023-04-24T01:17:26;4.10;;;3.70;;
18576;SDS011;9418;52.694;13.294;2023-04-24T01:19:54;4.50;;;4.10;;
18576;SDS011;9418;52.694;13.294;2023-04-24T01:22:23;4.00;;;3.70;;
18576;SDS011;9418;52.694;13.294;2023-04-24T01:24:49;4.17;;;3.87;;
18576;SDS011;9418;52.694;13.294;2023-04-24T01:27:16;4.10;;;3.80;;
18576;SDS011;9418;52.694;13.294;2023-04-24T01:29:43;4.30;;;4.00;;
18576;SDS011;9418;52.694;13.294;2023-04-24T01:32:09;4.70;;;4.20;;
18576;SDS011;9418;52.694;13.294;2023-04-24T01:34:37;4.50;;;4.20;;
18576;SDS011;9418;52.694;13.294;2023-04-24T01:37:04;4.70;;;4.40;;
18576;SDS011;9418;52.694;13.294;2023-04-24T01:39:32;5.20;;;4.70;;
18576;SDS011;9418;52.694;13.294;2023-04-24T01:41:59;6.90;;;4.80;;
18576;SDS011;9418;52.694;13.294;2023-04-24T01:44:26;5.50;;;4.60;;
18576;SDS011;9418;52.694;13.294;2023-04-24T01:46:53;5.30;;;4.80;;
18576;SDS011;9418;52.694;13.294;2023-04-24T01:49:21;4.77;;;4.20;;
18576;SDS011;9418;52.694;13.294;2023-04-24T01:51:48;8.00;;;4.53;;
18576;SDS011;9418;52.694;13.294;2023-04-24T01:54:14;5.30;;;4.80;;
18576;SDS011;9418;52.694;13.294;2023-04-24T01:56:42;5.60;;;5.20;;
18576;SDS011;9418;52.694;13.294;2023-04-24T01:59:09;4.70;;;4.40;;
18576;SDS011;9418;52.694;13.294;2023-04-24T02:01:37;4.80;;;4.40;;
18576;SDS011;9418;52.694;13.294;2023-04-24T02:04:04;5.10;;;4.80;;
18576;SDS011;9418;52.694;13.294;2023-04-24T02:06:32;5.50;;;4.43;;
18576;SDS011;9418;52.694;13.294;2023-04-24T02:08:58;4.73;;;4.43;;
18576;SDS011;9418;52.694;13.294;2023-04-24T02:11:25;5.17;;;4.77;;
18576;SDS011;9418;52.694;13.294;2023-04-24T02:13:53;5.47;;;4.67;;
18576;SDS011;9418;52.694;13.294;2023-04-24T02:16:20;9.93;;;4.60;;
18576;SDS011;9418;52.694;13.294;2023-04-24T02:18:46;4.80;;;4.50;;
18576;SDS011;9418;52.694;13.294;2023-04-24T02:21:13;5.27;;;4.80;;
18576;SDS011;9418;52.694;13.294;2023-04-24T02:23:40;6.13;;;5.60;;
18576;SDS011;9418;52.694;13.294;2023-04-24T02:26:06;8.97;;;4.90;;
18576;SDS011;9418;52.694;13.294;2023-04-24T02:28:33;5.57;;;5.07;;
18576;SDS011;9418;52.694;13.294;2023-04-24T02:31:01;5.37;;;5.03;;
18576;SDS011;9418;52.694;13.294;2023-04-24T02:33:27;5.47;;;4.97;;
18576;SDS011;9418;52.694;13.294;2023-04-24T02:35:54;5.20;;;4.90;;
18576;SDS011;9418;52.694;13.294;2023-04-24T02:38:20;7.13;;;4.90;;
18576;SDS011;9418;52.694;13.294;2023-04-24T02:40:47;5.70;;;5.20;;
18576;SDS011;9418;52.694;13.294;2023-04-24T02:43:14;6.97;;;4.90;;
18576;SDS011;9418;52.694;13.294;2023-04-24T02:45:40;6.60;;;4.23;;
18576;SDS011;9418;52.694;13.294;2023-04-24T02:48:08;5.17;;;4.87;;
18576;SDS011;9418;52.694;13.294;2023-04-24T02:50:34;5.33;;;4.93;;
18576;SDS011;9418;52.694;13.294;2023-04-24T02:53:01;10.07;;;4.87;;
18576;SDS011;9418;52.694;13.294;2023-04-24T02:55:28;6.00;;;5.13;;
18576;SDS011;9418;52.694;13.294;2023-04-24T02:57:55;5.83;;;5.27;;
18576;SDS011;9418;52.694;13.294;2023-04-24T03:00:21;5.63;;;5.13;;
18576;SDS011;9418;52.694;13.294;2023-04-24T03:02:48;6.80;;;5.80;;
18576;SDS011;9418;52.694;13.294;2023-04-24T03:05:16;5.33;;;4.70;;
18576;SDS011;9418;52.694;13.294;2023-04-24T03:07:43;5.80;;;5.40;;
18576;SDS011;9418;52.694;13.294;2023-04-24T03:10:10;5.50;;;5.00;;
18576;SDS011;9418;52.694;13.294;2023-04-24T03:12:37;5.50;;;5.00;;
18576;SDS011;9418;52.694;13.294;2023-04-24T03:15:03;14.53;;;11.30;;
18576;SDS011;9418;52.694;13.294;2023-04-24T03:17:31;10.10;;;9.20;;
18576;SDS011;9418;52.694;13.294;2023-04-24T03:19:57;7.33;;;6.73;;
18576;SDS011;9418;52.694;13.294;2023-04-24T03:22:25;6.57;;;6.03;;
18576;SDS011;9418;52.694;13.294;2023-04-24T03:24:52;6.23;;;5.70;;
18576;SDS011;9418;52.694;13.294;2023-04-24T03:27:19;5.10;;;4.73;;
18576;SDS011;9418;52.694;13.294;2023-04-24T03:29:46;5.47;;;5.10;;
18576;SDS011;9418;52.694;13.294;2023-04-24T03:32:12;10.20;;;9.20;;
18576;SDS011;9418;52.694;13.294;2023-04-24T03:34:39;9.13;;;8.33;;
18576;SDS011;9418;52.694;13.294;2023-04-24T03:37:06;16.30;;;7.00;;
18576;SDS011;9418;52.694;13.294;2023-04-24T03:39:34;11.03;;;6.90;;
18576;SDS011;9418;52.694;13.294;2023-04-24T03:42:00;14.00;;;6.40;;
18576;SDS011;9418;52.694;13.294;2023-04-24T03:44:27;5.83;;;5.33;;
18576;SDS011;9418;52.694;13.294;2023-04-24T03:46:54;13.63;;;5.90;;
18576;SDS011;9418;52.694;13.294;2023-04-24T03:49:20;5.93;;;5.50;;
18576;SDS011;9418;52.694;13.294;2023-04-24T03:51:47;6.80;;;6.20;;
18576;SDS011;9418;52.694;13.294;2023-04-24T03:54:13;8.50;;;5.97;;
18576;SDS011;9418;52.694;13.294;2023-04-24T03:56:41;5.40;;;4.97;;
18576;SDS011;9418;52.694;13.294;2023-04-24T03:59:08;6.77;;;6.13;;
18576;SDS011;9418;52.694;13.294;2023-04-24T04:01:34;6.20;;;5.77;;
18576;SDS011;9418;52.694;13.294;2023-04-24T04:04:02;7.07;;;6.17;;
18576;SDS011;9418;52.694;13.294;2023-04-24T04:06:28;7.53;;;6.33;;
18576;SDS011;9418;52.694;13.294;2023-04-24T04:08:56;11.40;;;6.50;;
18576;SDS011;9418;52.694;13.294;2023-04-24T04:11:23;6.57;;;6.00;;
18576;SDS011;9418;52.694;13.294;2023-04-24T04:13:51;7.20;;;5.70;;
18576;SDS011;9418;52.694;13.294;2023-04-24T04:16:17;8.73;;;5.67;;
18576;SDS011;9418;52.694;13.294;2023-04-24T04:18:44;6.13;;;5.57;;
18576;SDS011;9418;52.694;13.294;2023-04-24T04:21:11;7.10;;;6.50;;
18576;SDS011;9418;52.694;13.294;2023-04-24T04:23:37;10.10;;;5.80;;
18576;SDS011;9418;52.694;13.294;2023-04-24T04:26:05;7.87;;;6.37;;
18576;SDS011;9418;52.694;13.294;2023-04-24T04:28:32;6.10;;;5.60;;
18576;SDS011;9418;52.694;13.294;2023-04-24T04:31:01;5.57;;;5.20;;
18576;SDS011;9418;52.694;13.294;2023-04-24T04:33:27;6.57;;;5.97;;
18576;SDS011;9418;52.694;13.294;2023-04-24T04:35:54;5.70;;;4.90;;
18576;SDS011;9418;52.694;13.294;2023-04-24T04:38:21;5.60;;;5.17;;
18576;SDS011;9418;52.694;13.294;2023-04-24T04:40:48;7.13;;;5.70;;
18576;SDS011;9418;52.694;13.294;2023-04-24T04:43:15;6.73;;;6.23;;
18576;SDS011;9418;52.694;13.294;2023-04-24T04:45:41;10.47;;;5.90;;
18576;SDS011;9418;52.694;13.294;2023-04-24T04:48:11;6.67;;;5.97;;
18576;SDS011;9418;52.694;13.294;2023-04-24T04:50:38;6.50;;;5.97;;
18576;SDS011;9418;52.694;13.294;2023-04-24T04:53:05;5.97;;;5.40;;
18576;SDS011;9418;52.694;13.294;2023-04-24T04:55:31;5.93;;;5.43;;
18576;SDS011;9418;52.694;13.294;2023-04-24T04:57:58;6.17;;;5.33;;
18576;SDS011;9418;52.694;13.294;2023-04-24T05:00:25;6.83;;;5.90;;
18576;SDS011;9418;52.694;13.294;2023-04-24T05:02:53;6.13;;;5.60;;
18576;SDS011;9418;52.694;13.294;2023-04-24T05:05:21;8.23;;;5.90;;
18576;SDS011;9418;52.694;13.294;2023-04-24T05:07:48;6.27;;;5.77;;
18576;SDS011;9418;52.694;13.294;2023-04-24T05:10:14;8.67;;;6.07;;
18576;SDS011;9418;52.694;13.294;2023-04-24T05:12:41;8.47;;;5.27;;
18576;SDS011;9418;52.694;13.294;2023-04-24T05:15:07;10.23;;;5.80;;
18576;SDS011;9418;52.694;13.294;2023-04-24T05:17:34;5.90;;;5.30;;
18576;SDS011;9418;52.694;13.294;2023-04-24T05:20:01;5.27;;;4.77;;
18576;SDS011;9418;52.694;13.294;2023-04-24T05:22:31;5.30;;;4.90;;
18576;SDS011;9418;52.694;13.294;2023-04-24T05:24:58;6.10;;;5.60;;
18576;SDS011;9418;52.694;13.294;2023-04-24T05:27:24;5.40;;;5.00;;
18576;SDS011;9418;52.694;13.294;2023-04-24T05:29:51;6.80;;;4.70;;
18576;SDS011;9418;52.694;13.294;2023-04-24T05:32:17;5.03;;;4.47;;
18576;SDS011;9418;52.694;13.294;2023-04-24T05:34:44;4.73;;;4.43;;
18576;SDS011;9418;52.694;13.294;2023-04-24T05:37:11;4.50;;;4.20;;
18576;SDS011;9418;52.694;13.294;2023-04-24T05:39:39;4.37;;;4.07;;
18576;SDS011;9418;52.694;13.294;2023-04-24T05:42:06;5.40;;;5.00;;
18576;SDS011;9418;52.694;13.294;2023-04-24T05:44:33;4.97;;;4.50;;
18576;SDS011;9418;52.694;13.294;2023-04-24T05:46:59;4.70;;;4.30;;
18576;SDS011;9418;52.694;13.294;2023-04-24T05:49:26;9.27;;;4.70;;
18576;SDS011;9418;52.694;13.294;2023-04-24T05:51:53;4.93;;;4.60;;
18576;SDS011;9418;52.694;13.294;2023-04-24T05:54:20;6.23;;;5.50;;
18576;SDS011;9418;52.694;13.294;2023-04-24T05:56:47;5.50;;;4.30;;
18576;SDS011;9418;52.694;13.294;2023-04-24T05:59:15;4.07;;;3.63;;
18576;SDS011;9418;52.694;13.294;2023-04-24T06:01:41;5.80;;;3.70;;
18576;SDS011;9418;52.694;13.294;2023-04-24T06:04:08;4.30;;;4.00;;
18576;SDS011;9418;52.694;13.294;2023-04-24T06:06:34;4.07;;;3.70;;
18576;SDS011;9418;52.694;13.294;2023-04-24T06:09:01;3.07;;;2.87;;
18576;SDS011;9418;52.694;13.294;2023-04-24T06:11:28;4.07;;;3.30;;
18576;SDS011;9418;52.694;13.294;2023-04-24T06:13:56;3.13;;;2.83;;
18576;SDS011;9418;52.694;13.294;2023-04-24T06:16:23;3.00;;;2.70;;
18576;SDS011;9418;52.694;13.294;2023-04-24T06:18:49;3.00;;;2.80;;
18576;SDS011;9418;52.694;13.294;2023-04-24T06:21:16;4.77;;;3.30;;
18576;SDS011;9418;52.694;13.294;2023-04-24T06:23:43;3.87;;;3.43;;
18576;SDS011;9418;52.694;13.294;2023-04-24T06:26:11;6.00;;;3.67;;
18576;SDS011;9418;52.694;13.294;2023-04-24T06:28:37;4.23;;;3.50;;
18576;SDS011;9418;52.694;13.294;2023-04-24T06:31:06;3.23;;;2.97;;
18576;SDS011;9418;52.694;13.294;2023-04-24T06:33:32;5.03;;;2.93;;
18576;SDS011;9418;52.694;13.294;2023-04-24T06:35:59;2.73;;;2.53;;
18576;SDS011;9418;52.694;13.294;2023-04-24T06:38:25;2.00;;;1.90;;
18576;SDS011;9418;52.694;13.294;2023-04-24T06:40:52;3.53;;;2.17;;
18576;SDS011;9418;52.694;13.294;2023-04-24T06:43:18;3.67;;;1.90;;
18576;SDS011;9418;52.694;13.294;2023-04-24T06:45:45;2.33;;;1.73;;
18576;SDS011;9418;52.694;13.294;2023-04-24T06:48:13;3.40;;;1.50;;
18576;SDS011;9418;52.694;13.294;2023-04-24T06:50:40;3.60;;;1.57;;
18576;SDS011;9418;52.694;13.294;2023-04-24T06:53:06;1.30;;;1.20;;
18576;SDS011;9418;52.694;13.294;2023-04-24T06:55:33;3.37;;;1.50;;
18576;SDS011;9418;52.694;13.294;2023-04-24T06:58:01;1.10;;;1.10;;
18576;SDS011;9418;52.694;13.294;2023-04-24T07:00:27;1.30;;;1.27;;
18576;SDS011;9418;52.694;13.294;2023-04-24T07:02:55;1.50;;;1.40;;
18576;SDS011;9418;52.694;13.294;2023-04-24T07:05:23;2.40;;;1.33;;
18576;SDS011;9418;52.694;13.294;2023-04-24T07:07:50;1.30;;;1.30;;
18576;SDS011;9418;52.694;13.294;2023-04-24T07:10:17;1.37;;;1.27;;
18576;SDS011;9418;52.694;13.294;2023-04-24T07:12:45;1.40;;;1.40;;
18576;SDS011;9418;52.694;13.294;2023-04-24T07:15:12;1.13;;;1.10;;
18576;SDS011;9418;52.694;13.294;2023-04-24T07:17:39;2.00;;;1.40;;
18576;SDS011;9418;52.694;13.294;2023-04-24T07:20:08;1.30;;;1.20;;
18576;SDS011;9418;52.694;13.294;2023-04-24T07:22:38;3.57;;;1.53;;
18576;SDS011;9418;52.694;13.294;2023-04-24T07:25:05;1.90;;;1.20;;
18576;SDS011;9418;52.694;13.294;2023-04-24T07:27:32;1.50;;;1.40;;
18576;SDS011;9418;52.694;13.294;2023-04-24T07:29:58;1.10;;;1.10;;
18576;SDS011;9418;52.694;13.294;2023-04-24T07:32:25;1.97;;;1.30;;
18576;SDS011;9418;52.694;13.294;2023-04-24T07:34:52;1.47;;;1.37;;
18576;SDS011;9418;52.694;13.294;2023-04-24T07:37:18;2.23;;;1.43;;
18576;SDS011;9418;52.694;13.294;2023-04-24T07:39:46;1.67;;;1.50;;
18576;SDS011;9418;52.694;13.294;2023-04-24T07:42:14;1.00;;;0.90;;
18576;SDS011;9418;52.694;13.294;2023-04-24T07:44:41;1.57;;;1.00;;
18576;SDS011;9418;52.694;13.294;2023-04-24T07:47:07;1.00;;;1.00;;
18576;SDS011;9418;52.694;13.294;2023-04-24T07:49:34;1.80;;;1.10;;
18576;SDS011;9418;52.694;13.294;2023-04-24T07:52:01;1.00;;;1.00;;
18576;SDS011;9418;52.694;13.294;2023-04-24T07:54:28;1.30;;;1.20;;
18576;SDS011;9418;52.694;13.294;2023-04-24T07:56:56;2.13;;;1.00;;
18576;SDS011;9418;52.694;13.294;2023-04-24T07:59:22;1.90;;;1.10;;
18576;SDS011;9418;52.694;13.294;2023-04-24T08:01:49;1.40;;;1.07;;
18576;SDS011;9418;52.694;13.294;2023-04-24T08:04:15;0.90;;;0.90;;
18576;SDS011;9418;52.694;13.294;2023-04-24T08:06:42;1.67;;;0.90;;
18576;SDS011;9418;52.694;13.294;2023-04-24T08:09:09;2.10;;;1.10;;
18576;SDS011;9418;52.694;13.294;2023-04-24T08:11:37;2.67;;;1.20;;
18576;SDS011;9418;52.694;13.294;2023-04-24T08:14:05;1.23;;;1.13;;
18576;SDS011;9418;52.694;13.294;2023-04-24T08:16:32;0.80;;;0.80;;
18576;SDS011;9418;52.694;13.294;2023-04-24T08:18:58;0.83;;;0.83;;
18576;SDS011;9418;52.694;13.294;2023-04-24T08:21:25;1.20;;;0.90;;
18576;SDS011;9418;52.694;13.294;2023-04-24T08:23:52;2.50;;;0.67;;
18576;SDS011;9418;52.694;13.294;2023-04-24T08:26:18;2.00;;;0.70;;
18576;SDS011;9418;52.694;13.294;2023-04-24T08:28:45;1.07;;;0.80;;
18576;SDS011;9418;52.694;13.294;2023-04-24T08:31:13;1.47;;;0.60;;
18576;SDS011;9418;52.694;13.294;2023-04-24T08:33:39;0.70;;;0.70;;
18576;SDS011;9418;52.694;13.294;2023-04-24T08:36:06;1.90;;;0.80;;
18576;SDS011;9418;52.694;13.294;2023-04-24T08:38:33;2.00;;;0.80;;
18576;SDS011;9418;52.694;13.294;2023-04-24T08:41:00;0.60;;;0.60;;
18576;SDS011;9418;52.694;13.294;2023-04-24T08:43:27;0.63;;;0.63;;
18576;SDS011;9418;52.694;13.294;2023-04-24T08:45:54;2.50;;;0.90;;
18576;SDS011;9418;52.694;13.294;2023-04-24T08:48:23;0.83;;;0.80;;
18576;SDS011;9418;52.694;13.294;2023-04-24T08:50:51;2.20;;;0.90;;
18576;SDS011;9418;52.694;13.294;2023-04-24T08:53:17;3.40;;;0.90;;
18576;SDS011;9418;52.694;13.294;2023-04-24T08:55:45;1.53;;;1.03;;
18576;SDS011;9418;52.694;13.294;2023-04-24T08:58:14;1.90;;;1.10;;
18576;SDS011;9418;52.694;13.294;2023-04-24T09:00:43;1.20;;;1.10;;
18576;SDS011;9418;52.694;13.294;2023-04-24T09:03:12;1.27;;;0.80;;
18576;SDS011;9418;52.694;13.294;2023-04-24T09:05:40;5.20;;;1.10;;
18576;SDS011;9418;52.694;13.294;2023-04-24T09:08:10;1.80;;;1.00;;
18576;SDS011;9418;52.694;13.294;2023-04-24T09:10:38;1.83;;;1.07;;
18576;SDS011;9418;52.694;13.294;2023-04-24T09:13:06;1.00;;;0.80;;
18576;SDS011;9418;52.694;13.294;2023-04-24T09:15:34;0.87;;;0.87;;
18576;SDS011;9418;52.694;13.294;2023-04-24T09:18:00;2.60;;;0.90;;
18576;SDS011;9418;52.694;13.294;2023-04-24T09:20:27;0.80;;;0.80;;
18576;SDS011;9418;52.694;13.294;2023-04-24T09:22:55;1.13;;;0.90;;
18576;SDS011;9418;52.694;13.294;2023-04-24T09:25:22;0.60;;;0.60;;
18576;SDS011;9418;52.694;13.294;2023-04-24T09:27:59;1.40;;;0.80;;
18576;SDS011;9418;52.694;13.294;2023-04-24T09:30:26;1.37;;;0.60;;
18576;SDS011;9418;52.694;13.294;2023-04-24T09:35:40;1.60;;;0.80;;
18576;SDS011;9418;52.694;13.294;2023-04-24T09:38:08;1.00;;;0.90;;
18576;SDS011;9418;52.694;13.294;2023-04-24T09:40:35;0.87;;;0.87;;
18576;SDS011;9418;52.694;13.294;2023-04-24T09:43:02;1.77;;;0.93;;
18576;SDS011;9418;52.694;13.294;2023-04-24T09:45:31;1.37;;;0.70;;
18576;SDS011;9418;52.694;13.294;2023-04-24T09:48:01;1.07;;;1.00;;
18576;SDS011;9418;52.694;13.294;2023-04-24T09:50:29;0.70;;;0.70;;
18576;SDS011;9418;52.694;13.294;2023-04-24T09:52:57;1.50;;;1.07;;
18576;SDS011;9418;52.694;13.294;2023-04-24T09:55:28;1.23;;;1.00;;
18576;SDS011;9418;52.694;13.294;2023-04-24T09:57:55;0.90;;;0.90;;
18576;SDS011;9418;52.694;13.294;2023-04-24T10:00:23;1.67;;;1.57;;
18576;SDS011;9418;52.694;13.294;2023-04-24T10:02:54;1.17;;;0.83;;
18576;SDS011;9418;52.694;13.294;2023-04-24T10:05:25;1.30;;;0.90;;
18576;SDS011;9418;52.694;13.294;2023-04-24T10:07:57;4.10;;;1.23;;
18576;SDS011;9418;52.694;13.294;2023-04-24T10:10:28;0.80;;;0.73;;
18576;SDS011;9418;52.694;13.294;2023-04-24T10:12:55;1.53;;;1.17;;
18576;SDS011;9418;52.694;13.294;2023-04-24T10:15:22;1.13;;;0.80;;
18576;SDS011;9418;52.694;13.294;2023-04-24T10:17:48;1.10;;;1.00;;
18576;SDS011;9418;52.694;13.294;2023-04-24T10:20:18;1.87;;;0.93;;
18576;SDS011;9418;52.694;13.294;2023-04-24T10:22:47;1.90;;;0.97;;
18576;SDS011;9418;52.694;13.294;2023-04-24T10:25:18;1.10;;;0.90;;
18576;SDS011;9418;52.694;13.294;2023-04-24T10:27:48;1.73;;;1.20;;
18576;SDS011;9418;52.694;13.294;2023-04-24T10:30:16;2.73;;;1.03;;
18576;SDS011;9418;52.694;13.294;2023-04-24T10:32:43;0.97;;;0.93;;
18576;SDS011;9418;52.694;13.294;2023-04-24T10:35:10;2.03;;;0.90;;
18576;SDS011;9418;52.694;13.294;2023-04-24T10:37:39;2.90;;;1.00;;
18576;SDS011;9418;52.694;13.294;2023-04-24T10:40:09;2.97;;;0.90;;
18576;SDS011;9418;52.694;13.294;2023-04-24T10:42:39;1.10;;;0.90;;
18576;SDS011;9418;52.694;13.294;2023-04-24T10:45:09;0.87;;;0.87;;
18576;SDS011;9418;52.694;13.294;2023-04-24T10:47:42;5.33;;;1.20;;
18576;SDS011;9418;52.694;13.294;2023-04-24T10:50:09;5.40;;;1.00;;
18576;SDS011;9418;52.694;13.294;2023-04-24T10:52:46;2.20;;;1.30;;
18576;SDS011;9418;52.694;13.294;2023-04-24T10:55:13;1.90;;;1.10;;
18576;SDS011;9418;52.694;13.294;2023-04-24T10:57:47;0.80;;;0.80;;
18576;SDS011;9418;52.694;13.294;2023-04-24T11:00:28;2.60;;;0.80;;
18576;SDS011;9418;52.694;13.294;2023-04-24T11:02:55;2.73;;;0.80;;
18576;SDS011;9418;52.694;13.294;2023-04-24T11:05:49;1.10;;;0.80;;
18576;SDS011;9418;52.694;13.294;2023-04-24T11:08:21;1.33;;;0.80;;
18576;SDS011;9418;52.694;13.294;2023-04-24T11:10:54;1.07;;;0.90;;
18576;SDS011;9418;52.694;13.294;2023-04-24T11:13:23;3.30;;;1.00;;
18576;SDS011;9418;52.694;13.294;2023-04-24T11:19:01;1.10;;;0.87;;
18576;SDS011;9418;52.694;13.294;2023-04-24T11:21:30;1.47;;;0.70;;
18576;SDS011;9418;52.694;13.294;2023-04-24T11:23:57;1.83;;;1.07;;
18576;SDS011;9418;52.694;13.294;2023-04-24T11:26:24;1.70;;;0.97;;
18576;SDS011;9418;52.694;13.294;2023-04-24T11:29:05;0.87;;;0.87;;
18576;SDS011;9418;52.694;13.294;2023-04-24T11:31:39;0.70;;;0.70;;
18576;SDS011;9418;52.694;13.294;2023-04-24T11:34:09;1.13;;;0.73;;
18576;SDS011;9418;52.694;13.294;2023-04-24T11:36:37;1.87;;;0.87;;
18576;SDS011;9418;52.694;13.294;2023-04-24T11:39:04;2.20;;;0.77;;
18576;SDS011;9418;52.694;13.294;2023-04-24T11:41:31;4.07;;;0.93;;
18576;SDS011;9418;52.694;13.294;2023-04-24T11:43:58;5.43;;;0.80;;
18576;SDS011;9418;52.694;13.294;2023-04-24T11:46:28;1.73;;;0.70;;
18576;SDS011;9418;52.694;13.294;2023-04-24T11:48:56;1.43;;;0.67;;
18576;SDS011;9418;52.694;13.294;2023-04-24T11:51:26;2.30;;;0.90;;
18576;SDS011;9418;52.694;13.294;2023-04-24T11:53:53;0.80;;;0.80;;
18576;SDS011;9418;52.694;13.294;2023-04-24T11:56:20;0.97;;;0.60;;
18576;SDS011;9418;52.694;13.294;2023-04-24T11:58:47;0.73;;;0.60;;
18576;SDS011;9418;52.694;13.294;2023-04-24T12:01:14;2.77;;;0.90;;
18576;SDS011;9418;52.694;13.294;2023-04-24T12:03:41;3.03;;;0.80;;
18576;SDS011;9418;52.694;13.294;2023-04-24T12:06:11;1.23;;;0.80;;
18576;SDS011;9418;52.694;13.294;2023-04-24T12:08:40;4.40;;;0.70;;
18576;SDS011;9418;52.694;13.294;2023-04-24T12:11:06;6.40;;;0.57;;
18576;SDS011;9418;52.694;13.294;2023-04-24T12:13:33;1.80;;;0.77;;
18576;SDS011;9418;52.694;13.294;2023-04-24T12:16:01;1.23;;;1.13;;
18576;SDS011;9418;52.694;13.294;2023-04-24T12:18:29;2.30;;;0.80;;
18576;SDS011;9418;52.694;13.294;2023-04-24T12:20:55;0.93;;;0.83;;
18576;SDS011;9418;52.694;13.294;2023-04-24T12:23:43;2.30;;;0.53;;
18576;SDS011;9418;52.694;13.294;2023-04-24T12:26:10;1.27;;;1.00;;
18576;SDS011;9418;52.694;13.294;2023-04-24T12:28:37;5.23;;;1.57;;
18576;SDS011;9418;52.694;13.294;2023-04-24T12:31:05;0.80;;;0.80;;
18576;SDS011;9418;52.694;13.294;2023-04-24T12:33:33;2.20;;;0.93;;
18576;SDS011;9418;52.694;13.294;2023-04-24T12:36:00;1.37;;;0.73;;
18576;SDS011;9418;52.694;13.294;2023-04-24T12:38:28;0.80;;;0.80;;
18576;SDS011;9418;52.694;13.294;2023-04-24T12:41:03;1.93;;;1.33;;
18576;SDS011;9418;52.694;13.294;2023-04-24T12:43:31;2.10;;;1.10;;
18576;SDS011;9418;52.694;13.294;2023-04-24T12:45:57;3.60;;;0.80;;
18576;SDS011;9418;52.694;13.294;2023-04-24T12:48:24;0.60;;;0.60;;
18576;SDS011;9418;52.694;13.294;2023-04-24T12:50:51;0.87;;;0.87;;
18576;SDS011;9418;52.694;13.294;2023-04-24T12:53:18;0.80;;;0.70;;
18576;SDS011;9418;52.694;13.294;2023-04-24T12:55:44;1.00;;;0.77;;
18576;SDS011;9418;52.694;13.294;2023-04-24T12:58:13;0.70;;;0.57;;
18576;SDS011;9418;52.694;13.294;2023-04-24T13:00:40;0.70;;;0.60;;
18576;SDS011;9418;52.694;13.294;2023-04-24T13:03:08;2.30;;;1.00;;
18576;SDS011;9418;52.694;13.294;2023-04-24T13:05:34;3.73;;;0.80;;
18576;SDS011;9418;52.694;13.294;2023-04-24T13:08:01;1.53;;;0.90;;
18576;SDS011;9418;52.694;13.294;2023-04-24T13:10:28;1.37;;;1.27;;
18576;SDS011;9418;52.694;13.294;2023-04-24T13:12:54;1.80;;;1.00;;
18576;SDS011;9418;52.694;13.294;2023-04-24T13:15:22;3.83;;;1.10;;
18576;SDS011;9418;52.694;13.294;2023-04-24T13:17:49;0.90;;;0.90;;
18576;SDS011;9418;52.694;13.294;2023-04-24T13:20:16;2.27;;;1.30;;
18576;SDS011;9418;52.694;13.294;2023-04-24T13:22:43;2.93;;;1.30;;
18576;SDS011;9418;52.694;13.294;2023-04-24T13:25:10;1.53;;;1.00;;
18576;SDS011;9418;52.694;13.294;2023-04-24T13:27:37;1.87;;;0.90;;
18576;SDS011;9418;52.694;13.294;2023-04-24T13:30:05;1.23;;;1.20;;
18576;SDS011;9418;52.694;13.294;2023-04-24T13:32:34;1.17;;;1.07;;
18576;SDS011;9418;52.694;13.294;2023-04-24T13:35:01;1.30;;;1.10;;
18576;SDS011;9418;52.694;13.294;2023-04-24T13:37:28;0.90;;;0.90;;
18576;SDS011;9418;52.694;13.294;2023-04-24T13:39:54;1.40;;;1.30;;
18576;SDS011;9418;52.694;13.294;2023-04-24T13:42:21;1.40;;;1.30;;
18576;SDS011;9418;52.694;13.294;2023-04-24T13:44:48;2.20;;;1.00;;
18576;SDS011;9418;52.694;13.294;2023-04-24T13:47:15;1.13;;;1.00;;
18576;SDS011;9418;52.694;13.294;2023-04-24T13:49:43;0.90;;;0.90;;
18576;SDS011;9418;52.694;13.294;2023-04-24T13:52:10;1.47;;;1.20;;
18576;SDS011;9418;52.694;13.294;2023-04-24T13:54:36;2.20;;;1.13;;
18576;SDS011;9418;52.694;13.294;2023-04-24T13:57:03;0.93;;;0.93;;
18576;SDS011;9418;52.694;13.294;2023-04-24T13:59:30;4.17;;;0.93;;
18576;SDS011;9418;52.694;13.294;2023-04-24T14:01:56;0.97;;;0.87;;
18576;SDS011;9418;52.694;13.294;2023-04-24T14:04:23;1.13;;;0.90;;
18576;SDS011;9418;52.694;13.294;2023-04-24T14:06:51;1.27;;;1.00;;
18576;SDS011;9418;52.694;13.294;2023-04-24T14:09:18;1.43;;;1.30;;
18576;SDS011;9418;52.694;13.294;2023-04-24T14:11:44;1.20;;;0.77;;
18576;SDS011;9418;52.694;13.294;2023-04-24T14:14:11;7.60;;;1.10;;
18576;SDS011;9418;52.694;13.294;2023-04-24T14:16:37;1.03;;;0.73;;
18576;SDS011;9418;52.694;13.294;2023-04-24T14:19:04;1.63;;;0.90;;
18576;SDS011;9418;52.694;13.294;2023-04-24T14:21:31;2.37;;;1.00;;
18576;SDS011;9418;52.694;13.294;2023-04-24T14:24:00;1.20;;;1.10;;
18576;SDS011;9418;52.694;13.294;2023-04-24T14:26:26;0.97;;;0.97;;
18576;SDS011;9418;52.694;13.294;2023-04-24T14:28:53;1.10;;;0.90;;
18576;SDS011;9418;52.694;13.294;2023-04-24T14:31:20;1.40;;;1.00;;
18576;SDS011;9418;52.694;13.294;2023-04-24T14:33:46;3.07;;;0.80;;
18576;SDS011;9418;52.694;13.294;2023-04-24T14:36:13;1.30;;;0.90;;
18576;SDS011;9418;52.694;13.294;2023-04-24T14:38:40;14.50;;;1.03;;
18576;SDS011;9418;52.694;13.294;2023-04-24T14:41:07;9.63;;;0.87;;
18576;SDS011;9418;52.694;13.294;2023-04-24T14:43:36;1.00;;;1.00;;
18576;SDS011;9418;52.694;13.294;2023-04-24T14:46:03;1.80;;;0.80;;
18576;SDS011;9418;52.694;13.294;2023-04-24T14:48:30;0.80;;;0.80;;
18576;SDS011;9418;52.694;13.294;2023-04-24T14:50:56;7.70;;;0.73;;
18576;SDS011;9418;52.694;13.294;2023-04-24T14:53:23;0.70;;;0.70;;
18576;SDS011;9418;52.694;13.294;2023-04-24T14:55:50;3.23;;;0.90;;